createdAt,value
2022-08-23T00:02:25.599Z,9.07
2022-08-23T00:05:08.144Z,8.70
2022-08-23T00:07:41.638Z,11.88
2022-08-23T00:10:16.879Z,11.23
2022-08-23T00:12:47.219Z,10.52
2022-08-23T00:15:19.271Z,13.23
2022-08-23T00:17:47.546Z,9.50
2022-08-23T00:20:20.211Z,13.30
2022-08-23T00:22:47.888Z,9.48
2022-08-23T00:25:15.539Z,12.73
2022-08-23T00:27:44.284Z,10.27
2022-08-23T00:30:14.529Z,8.45
2022-08-23T00:32:43.757Z,9.93
2022-08-23T00:35:26.528Z,9.18
2022-08-23T00:38:32.438Z,12.88
2022-08-23T00:40:51.141Z,12.65
2022-08-23T00:43:54.398Z,9.32
2022-08-23T00:47:10.070Z,11.35
2022-08-23T00:49:43.890Z,9.32
2022-08-23T00:52:38.540Z,13.77
2022-08-23T00:55:07.087Z,16.05
2022-08-23T00:57:37.182Z,7.63
2022-08-23T01:00:10.448Z,9.63
2022-08-23T01:02:38.640Z,9.80
2022-08-23T01:05:07.596Z,13.30
2022-08-23T01:07:51.383Z,10.13
2022-08-23T01:10:35.609Z,9.32
2022-08-23T01:13:27.094Z,11.18
2022-08-23T01:16:07.408Z,8.95
2022-08-23T01:18:35.676Z,11.13
2022-08-23T01:21:41.418Z,10.27
2022-08-23T01:24:10.518Z,12.50
2022-08-23T01:26:56.031Z,14.73
2022-08-23T01:29:24.329Z,11.60
2022-08-23T01:31:52.012Z,9.70
2022-08-23T01:34:25.897Z,15.50
2022-08-23T01:36:53.830Z,10.43
2022-08-23T01:39:21.197Z,11.82
2022-08-23T01:41:48.516Z,9.65
2022-08-23T01:44:16.473Z,10.60
2022-08-23T01:46:47.570Z,11.57
2022-08-23T01:49:16.218Z,11.00
2022-08-23T01:51:44.151Z,13.90
2022-08-23T01:54:12.806Z,12.07
2022-08-23T01:56:42.859Z,9.80
2022-08-23T01:59:13.678Z,9.65
2022-08-23T02:01:47.321Z,12.45
2022-08-23T02:04:14.817Z,11.07
2022-08-23T02:06:42.237Z,12.95
2022-08-23T02:09:17.953Z,12.10
2022-08-23T02:11:48.101Z,11.68
2022-08-23T02:14:21.094Z,10.98
2022-08-23T02:17:03.270Z,13.20
2022-08-23T02:19:38.513Z,9.27
2022-08-23T02:22:08.479Z,8.85
2022-08-23T02:24:42.948Z,11.30
2022-08-23T02:27:14.755Z,11.82
2022-08-23T02:29:46.745Z,9.43
2022-08-23T02:32:18.471Z,10.13
2022-08-23T02:34:57.790Z,13.40
2022-08-23T02:37:35.698Z,11.95
2022-08-23T02:40:07.142Z,13.13
2022-08-23T02:42:34.676Z,10.85
2022-08-23T02:45:03.705Z,13.23
2022-08-23T02:47:33.466Z,12.00
2022-08-23T02:50:15.291Z,12.18
2022-08-23T02:52:44.211Z,12.85
2022-08-23T02:55:12.228Z,11.25
2022-08-23T02:57:40.410Z,12.55
2022-08-23T03:00:12.460Z,12.05
2022-08-23T03:02:40.741Z,11.70
2022-08-23T03:05:10.508Z,12.15
2022-08-23T03:07:38.451Z,21.10
2022-08-23T03:10:12.086Z,15.73
2022-08-23T03:12:44.933Z,13.63
2022-08-23T03:15:12.403Z,15.43
2022-08-23T03:17:40.003Z,16.90
2022-08-23T03:20:11.410Z,16.48
2022-08-23T03:22:38.670Z,16.02
2022-08-23T03:25:08.232Z,20.08
2022-08-23T03:27:52.028Z,16.27
2022-08-23T03:30:20.132Z,13.73
2022-08-23T03:32:55.870Z,13.43
2022-08-23T03:35:23.357Z,16.65
2022-08-23T03:37:55.118Z,15.48
2022-08-23T03:40:24.533Z,23.63
2022-08-23T03:42:52.464Z,16.30
2022-08-23T03:45:22.815Z,19.77
2022-08-23T03:47:50.681Z,20.23
2022-08-23T03:50:18.188Z,13.90
2022-08-23T03:52:46.975Z,15.55
2022-08-23T03:55:16.280Z,16.05
2022-08-23T03:57:46.308Z,16.17
2022-08-23T04:00:20.441Z,13.52
2022-08-23T04:02:50.828Z,16.48
2022-08-23T04:05:18.688Z,14.65
2022-08-23T04:07:51.491Z,15.35
2022-08-23T04:10:22.172Z,15.82
2022-08-23T04:12:54.830Z,15.32
2022-08-23T04:15:23.249Z,15.70
2022-08-23T04:17:51.094Z,15.15
2022-08-23T04:20:18.807Z,16.92
2022-08-23T04:22:59.030Z,15.32
2022-08-23T04:25:34.549Z,15.40
2022-08-23T04:28:05.613Z,18.17
2022-08-23T04:30:34.266Z,18.83
2022-08-23T04:33:09.799Z,21.05
2022-08-23T04:35:41.478Z,17.27
2022-08-23T04:38:24.680Z,16.05
2022-08-23T04:41:15.771Z,14.23
2022-08-23T04:43:45.678Z,13.77
2022-08-23T04:46:16.965Z,16.70
2022-08-23T04:48:48.039Z,17.38
2022-08-23T04:51:17.470Z,17.83
2022-08-23T04:53:46.082Z,15.57
2022-08-23T04:56:36.434Z,19.10
2022-08-23T04:59:05.684Z,19.40
2022-08-23T05:01:35.309Z,16.25
2022-08-23T05:04:04.839Z,18.83
2022-08-23T05:06:34.589Z,20.40
2022-08-23T05:09:01.886Z,14.40
2022-08-23T05:11:30.307Z,16.67
2022-08-23T05:13:57.671Z,18.65
2022-08-23T05:16:25.485Z,17.27
2022-08-23T05:19:06.516Z,19.00
2022-08-23T05:21:39.985Z,16.02
2022-08-23T05:24:07.499Z,19.48
2022-08-23T05:26:35.529Z,16.02
2022-08-23T05:29:05.215Z,15.65
2022-08-23T05:31:38.882Z,17.45
2022-08-23T05:34:06.406Z,15.68
2022-08-23T05:36:48.380Z,20.80
2022-08-23T05:39:25.789Z,17.95
2022-08-23T05:42:14.879Z,15.25
2022-08-23T05:44:44.355Z,20.13
2022-08-23T05:47:16.619Z,18.13
2022-08-23T05:49:51.837Z,17.13
2022-08-23T05:52:19.613Z,17.08
2022-08-23T05:54:46.910Z,19.45
2022-08-23T06:00:38.023Z,17.18
2022-08-23T06:03:09.235Z,19.10
2022-08-23T06:05:41.717Z,25.85
2022-08-23T06:08:09.724Z,26.80
2022-08-23T06:10:41.721Z,37.15
2022-08-23T06:13:33.127Z,28.10
2022-08-23T06:16:00.497Z,22.80
2022-08-23T06:18:43.087Z,20.90
2022-08-23T06:21:42.405Z,22.38
2022-08-23T06:24:12.176Z,18.35
2022-08-23T06:26:48.489Z,24.25
2022-08-23T06:29:20.149Z,20.13
2022-08-23T06:31:54.134Z,21.33
2022-08-23T06:34:33.597Z,24.13
2022-08-23T06:37:22.963Z,23.83
2022-08-23T06:40:13.979Z,24.80
2022-08-23T06:42:48.638Z,21.90
2022-08-23T06:45:26.991Z,22.33
2022-08-23T06:48:02.637Z,18.45
2022-08-23T06:50:31.979Z,22.38
2022-08-23T06:53:18.327Z,22.63
2022-08-23T06:56:01.065Z,18.67
2022-08-23T06:58:39.626Z,18.90
2022-08-23T07:01:45.630Z,20.38
2022-08-23T07:04:35.059Z,21.10
2022-08-23T07:07:15.559Z,20.17
2022-08-23T07:09:42.963Z,20.75
2022-08-23T07:12:11.542Z,24.25
2022-08-23T07:14:42.505Z,22.33
2022-08-23T07:17:11.157Z,22.75
2022-08-23T07:19:39.065Z,25.58
2022-08-23T07:22:07.804Z,22.00
2022-08-23T07:24:35.597Z,21.58
2022-08-23T07:27:07.221Z,23.83
2022-08-23T07:29:39.715Z,23.25
2022-08-23T07:32:08.484Z,23.60
2022-08-23T07:34:36.914Z,21.23
2022-08-23T07:37:15.258Z,22.52
2022-08-23T07:39:45.086Z,22.55
2022-08-23T07:42:23.468Z,24.80
2022-08-23T07:44:54.145Z,21.05
2022-08-23T07:47:25.532Z,22.52
2022-08-23T07:49:56.552Z,25.40
2022-08-23T07:52:23.934Z,22.52
2022-08-23T07:54:51.206Z,20.30
2022-08-23T07:57:41.465Z,24.27
2022-08-23T08:00:37.942Z,24.15
2022-08-23T08:06:41.121Z,23.38
2022-08-23T08:09:10.970Z,21.98
2022-08-23T08:11:41.920Z,24.35
2022-08-23T08:14:11.460Z,22.88
2022-08-23T08:19:31.057Z,19.02
2022-08-23T08:22:16.994Z,20.73
2022-08-23T08:25:14.801Z,20.70
2022-08-23T08:27:43.626Z,22.25
2022-08-23T08:30:13.212Z,21.67
2022-08-23T08:32:47.219Z,19.60
2022-08-23T08:35:15.946Z,21.67
2022-08-23T08:37:44.050Z,19.60
2022-08-23T08:40:12.102Z,22.40
2022-08-23T08:43:20.667Z,22.13
2022-08-23T08:46:26.604Z,24.15
2022-08-23T08:49:01.779Z,20.95
2022-08-23T08:51:56.775Z,20.38
2022-08-23T08:54:29.379Z,21.73
2022-08-23T08:57:01.649Z,21.27
2022-08-23T09:00:07.336Z,21.13
2022-08-23T09:02:38.512Z,23.65
2022-08-23T09:05:27.700Z,20.60
2022-08-23T09:08:36.331Z,18.98
2022-08-23T09:11:31.594Z,19.95
2022-08-23T09:14:23.703Z,18.48
2022-08-23T09:17:05.575Z,22.02
2022-08-23T09:19:39.232Z,20.20
2022-08-23T09:22:18.321Z,19.20
2022-08-23T09:24:45.851Z,18.55
2022-08-23T09:27:21.158Z,20.00
2022-08-23T09:29:59.767Z,18.98
2022-08-23T09:32:38.321Z,14.60
2022-08-23T09:35:25.899Z,17.80
2022-08-23T09:38:17.136Z,20.42
2022-08-23T09:40:50.584Z,17.08
2022-08-23T09:43:28.456Z,21.00
2022-08-23T09:46:02.171Z,15.98
2022-08-23T09:48:46.840Z,15.75
2022-08-23T09:51:42.784Z,20.47
2022-08-23T09:54:36.174Z,15.85
2022-08-23T09:57:13.703Z,19.00
2022-08-23T09:59:47.523Z,17.73
2022-08-23T10:02:34.569Z,17.10
2022-08-23T10:05:15.669Z,15.80
2022-08-23T10:08:00.593Z,17.77
2022-08-23T10:10:50.990Z,18.88
2022-08-23T10:13:23.165Z,12.52
2022-08-23T10:16:44.711Z,64.07
2022-08-23T10:19:44.333Z,12.35
2022-08-23T10:23:04.911Z,15.35
2022-08-23T10:26:00.274Z,11.13
2022-08-23T10:29:41.082Z,12.82
2022-08-23T10:32:50.149Z,10.52
2022-08-23T10:35:56.325Z,10.30
2022-08-23T10:39:03.709Z,8.90
2022-08-23T10:45:24.497Z,7.00
2022-08-23T10:48:12.793Z,10.25
2022-08-23T10:50:55.560Z,14.15
2022-08-23T10:53:39.393Z,13.70
2022-08-23T10:56:08.150Z,9.73
2022-08-23T10:59:20.807Z,11.55
2022-08-23T11:02:29.212Z,9.27
2022-08-23T11:05:35.441Z,9.07
2022-08-23T11:08:47.501Z,8.98
2022-08-23T11:12:11.049Z,10.13
2022-08-23T11:15:04.619Z,7.05
2022-08-23T11:18:00.994Z,6.82
2022-08-23T11:20:51.250Z,7.10
2022-08-23T11:23:58.865Z,8.43
2022-08-23T11:26:27.944Z,11.23
2022-08-23T11:29:05.908Z,11.93
2022-08-23T11:31:47.342Z,16.63
2022-08-23T11:34:29.698Z,6.35
2022-08-23T11:37:19.969Z,5.70
2022-08-23T11:39:59.862Z,7.03
2022-08-23T11:45:27.609Z,6.63
2022-08-23T11:48:20.068Z,11.38
2022-08-23T11:51:46.410Z,5.97
2022-08-23T11:54:39.099Z,4.82
2022-08-23T11:57:33.554Z,6.15
2022-08-23T12:00:28.649Z,6.07
2022-08-23T12:03:54.834Z,6.05
2022-08-23T12:06:56.037Z,5.88
2022-08-23T12:09:23.243Z,6.63
2022-08-23T12:11:56.796Z,7.35
2022-08-23T12:14:32.817Z,5.13
2022-08-23T12:17:13.449Z,5.07
2022-08-23T12:19:57.640Z,7.32
2022-08-23T12:22:54.672Z,8.75
2022-08-23T12:25:24.062Z,5.53
2022-08-23T12:28:24.844Z,9.10
2022-08-23T12:31:20.147Z,8.52
2022-08-23T12:34:11.020Z,6.50
2022-08-23T12:36:59.197Z,5.97
2022-08-23T12:39:37.223Z,6.25
2022-08-23T12:42:39.381Z,8.15
2022-08-23T12:45:23.434Z,9.90
2022-08-23T12:48:02.747Z,6.70
2022-08-23T12:50:40.778Z,5.28
2022-08-23T12:53:45.037Z,5.18
2022-08-23T12:56:31.676Z,8.35
2022-08-23T12:59:07.795Z,7.25
2022-08-23T13:01:41.903Z,7.05
2022-08-23T13:04:16.401Z,7.40
2022-08-23T13:07:01.644Z,4.97
2022-08-23T13:09:40.779Z,5.28
2022-08-23T13:12:10.994Z,6.10
2022-08-23T13:14:40.753Z,9.43
2022-08-23T13:17:39.608Z,10.30
2022-08-23T13:20:23.403Z,5.95
2022-08-23T13:23:06.438Z,7.38
2022-08-23T13:25:43.027Z,4.53
2022-08-23T13:28:31.152Z,3.92
2022-08-23T13:31:08.874Z,7.75
2022-08-23T13:33:37.246Z,5.57
2022-08-23T13:36:21.809Z,6.45
2022-08-23T13:38:50.275Z,4.40
2022-08-23T13:41:39.128Z,6.57
2022-08-23T13:44:11.457Z,6.00
2022-08-23T13:46:47.780Z,6.25
2022-08-23T13:49:28.600Z,6.10
2022-08-23T13:54:52.410Z,4.28
2022-08-23T13:57:22.725Z,6.70
2022-08-23T13:59:58.889Z,7.00
2022-08-23T14:02:26.617Z,4.90
2022-08-23T14:04:54.167Z,4.75
2022-08-23T14:07:21.872Z,4.03
2022-08-23T14:09:53.186Z,5.65
2022-08-23T14:12:33.374Z,5.40
2022-08-23T14:15:05.394Z,3.97
2022-08-23T14:17:46.987Z,4.53
2022-08-23T14:20:43.263Z,5.75
2022-08-23T14:23:12.399Z,4.50
2022-08-23T14:25:40.129Z,3.97
2022-08-23T14:28:07.403Z,4.30
2022-08-23T14:30:37.096Z,5.88
2022-08-23T14:33:06.305Z,6.15
2022-08-23T14:35:33.796Z,5.75
2022-08-23T14:38:04.060Z,6.15
2022-08-23T14:40:32.781Z,5.70
2022-08-23T14:43:00.372Z,4.03
2022-08-23T14:45:27.871Z,6.18
2022-08-23T14:47:55.177Z,4.85
2022-08-23T14:50:22.594Z,5.90
2022-08-23T14:52:49.963Z,4.57
2022-08-23T14:55:17.381Z,3.30
2022-08-23T14:57:44.782Z,5.18
2022-08-23T15:00:14.044Z,5.40
2022-08-23T15:02:47.528Z,4.45
2022-08-23T15:05:16.633Z,5.22
2022-08-23T15:07:44.475Z,3.75
2022-08-23T15:13:20.648Z,5.43
2022-08-23T15:15:50.882Z,4.05
2022-08-23T15:18:19.954Z,3.60
2022-08-23T15:20:47.402Z,5.30
2022-08-23T15:23:15.433Z,3.70
2022-08-23T15:25:44.946Z,4.75
2022-08-23T15:28:17.537Z,4.43
2022-08-23T15:30:46.826Z,3.55
2022-08-23T15:33:14.561Z,3.20
2022-08-23T15:35:51.696Z,7.03
2022-08-23T15:38:22.975Z,3.50
2022-08-23T15:40:54.372Z,3.92
2022-08-23T15:43:25.792Z,5.25
2022-08-23T15:46:12.037Z,4.75
2022-08-23T15:48:57.727Z,6.30
2022-08-23T15:51:26.107Z,7.63
2022-08-23T15:53:53.863Z,4.13
2022-08-23T15:56:49.682Z,5.00
2022-08-23T15:59:19.833Z,4.65
2022-08-23T16:01:47.294Z,4.25
2022-08-23T16:04:14.889Z,5.57
2022-08-23T16:06:42.558Z,3.65
2022-08-23T16:09:21.180Z,4.35
2022-08-23T16:11:49.758Z,3.33
2022-08-23T16:14:17.669Z,4.82
2022-08-23T16:16:46.766Z,4.43
2022-08-23T16:19:16.728Z,3.53
2022-08-23T16:21:44.900Z,3.92
2022-08-23T16:24:12.486Z,3.75
2022-08-23T16:26:45.398Z,5.20
2022-08-23T16:29:17.245Z,5.72
2022-08-23T16:31:46.571Z,6.43
2022-08-23T16:34:19.535Z,3.90
2022-08-23T16:36:55.971Z,4.65
2022-08-23T16:39:24.278Z,4.47
2022-08-23T16:41:51.603Z,5.85
2022-08-23T16:44:19.214Z,5.57
2022-08-23T16:46:46.911Z,4.22
2022-08-23T16:49:17.389Z,3.50
2022-08-23T16:51:45.882Z,4.95
2022-08-23T16:54:13.881Z,3.22
2022-08-23T16:56:42.674Z,3.67
2022-08-23T16:59:13.128Z,3.63
2022-08-23T17:02:04.417Z,4.75
2022-08-23T17:04:38.133Z,2.47
2022-08-23T17:07:06.361Z,2.97
2022-08-23T17:09:34.041Z,2.40
2022-08-23T17:12:02.257Z,6.55
2022-08-23T17:14:29.522Z,3.25
2022-08-23T17:16:56.864Z,3.97
2022-08-23T17:19:24.856Z,5.75
2022-08-23T17:21:52.119Z,1.70
2022-08-23T17:24:19.528Z,2.85
2022-08-23T17:26:47.030Z,5.85
2022-08-23T17:29:14.419Z,4.50
2022-08-23T17:31:43.366Z,3.00
2022-08-23T17:34:10.744Z,2.97
2022-08-23T17:36:48.093Z,4.97
2022-08-23T17:39:20.674Z,3.75
2022-08-23T17:41:48.093Z,2.10
2022-08-23T17:44:15.905Z,5.38
2022-08-23T17:46:45.726Z,6.70
2022-08-23T17:49:15.402Z,3.47
2022-08-23T17:51:43.250Z,4.40
2022-08-23T17:54:16.152Z,3.67
2022-08-23T17:56:50.155Z,5.13
2022-08-23T17:59:21.652Z,4.50
2022-08-23T18:01:49.350Z,4.50
2022-08-23T18:04:16.744Z,3.75
2022-08-23T18:06:44.670Z,4.13
2022-08-23T18:09:12.204Z,4.15
2022-08-23T18:11:39.556Z,4.80
2022-08-23T18:14:06.825Z,4.53
2022-08-23T18:16:35.812Z,5.05
2022-08-23T18:19:11.267Z,7.20
2022-08-23T18:21:42.561Z,5.88
2022-08-23T18:24:11.027Z,5.80
2022-08-23T18:26:58.139Z,15.63
2022-08-23T18:29:27.044Z,6.65
2022-08-23T18:31:55.519Z,5.00
2022-08-23T18:34:23.346Z,4.93
2022-08-23T18:36:51.297Z,4.78
2022-08-23T18:39:31.288Z,3.67
2022-08-23T18:42:03.375Z,5.45
2022-08-23T18:44:31.996Z,4.68
2022-08-23T18:47:02.188Z,3.85
2022-08-23T18:49:31.010Z,5.35
2022-08-23T18:51:58.434Z,4.32
2022-08-23T18:54:28.864Z,5.22
2022-08-23T18:56:58.267Z,8.60
2022-08-23T18:59:25.501Z,2.95
2022-08-23T19:01:52.899Z,5.35
2022-08-23T19:04:20.316Z,5.35
2022-08-23T19:06:48.037Z,4.70
2022-08-23T19:09:15.702Z,2.63
2022-08-23T19:11:44.274Z,6.07
2022-08-23T19:14:12.644Z,4.85
2022-08-23T19:16:47.436Z,6.28
2022-08-23T19:19:16.546Z,4.63
2022-08-23T19:21:43.936Z,8.52
2022-08-23T19:24:11.346Z,7.15
2022-08-23T19:26:40.084Z,7.18
2022-08-23T19:29:09.178Z,6.18
2022-08-23T19:31:42.752Z,6.93
2022-08-23T19:34:11.428Z,6.70
2022-08-23T19:36:49.980Z,6.43
2022-08-23T19:39:24.754Z,5.47
2022-08-23T19:41:52.081Z,5.47
2022-08-23T19:44:19.498Z,5.90
2022-08-23T19:46:46.940Z,7.68
2022-08-23T19:49:15.023Z,6.60
2022-08-23T19:51:44.382Z,6.80
2022-08-23T19:54:12.813Z,12.25
2022-08-23T19:56:47.690Z,8.75
2022-08-23T19:59:21.689Z,7.57
2022-08-23T20:01:50.856Z,9.75
2022-08-23T20:04:21.058Z,6.15
2022-08-23T20:06:49.330Z,8.07
2022-08-23T20:09:18.993Z,6.50
2022-08-23T20:11:46.696Z,7.45
2022-08-23T20:14:14.342Z,7.72
2022-08-23T20:16:42.303Z,6.95
2022-08-23T20:19:11.883Z,7.10
2022-08-23T20:21:41.916Z,5.93
2022-08-23T20:24:14.599Z,6.50
2022-08-23T20:26:49.048Z,8.60
2022-08-23T20:29:22.230Z,6.60
2022-08-23T20:31:59.718Z,5.97
2022-08-23T20:34:30.484Z,7.85
2022-08-23T20:36:58.009Z,7.63
2022-08-23T20:39:25.788Z,8.98
2022-08-23T20:41:54.766Z,7.15
2022-08-23T20:44:26.615Z,7.22
2022-08-23T20:46:56.763Z,8.93
2022-08-23T20:49:27.057Z,9.38
2022-08-23T20:51:54.337Z,9.88
2022-08-23T20:54:22.961Z,10.60
2022-08-23T20:56:52.247Z,11.10
2022-08-23T20:59:20.822Z,12.15
2022-08-23T21:01:49.353Z,12.80
2022-08-23T21:04:17.347Z,11.27
2022-08-23T21:06:53.626Z,11.25
2022-08-23T21:09:29.029Z,11.75
2022-08-23T21:11:57.296Z,12.95
2022-08-23T21:14:24.664Z,12.05
2022-08-23T21:16:52.151Z,10.52
2022-08-23T21:19:19.503Z,12.45
2022-08-23T21:21:47.480Z,14.13
2022-08-23T21:24:15.878Z,16.77
2022-08-23T21:26:43.239Z,14.50
2022-08-23T21:29:11.148Z,15.30
2022-08-23T21:31:39.610Z,14.55
2022-08-23T21:34:08.238Z,15.25
2022-08-23T21:36:37.360Z,17.02
2022-08-23T21:39:06.340Z,14.98
2022-08-23T21:41:39.748Z,13.93
2022-08-23T21:44:14.467Z,14.80
2022-08-23T21:46:43.444Z,14.80
2022-08-23T21:49:12.237Z,14.77
2022-08-23T21:51:42.042Z,16.63
2022-08-23T21:54:12.790Z,16.52
2022-08-23T21:56:40.906Z,14.43
2022-08-23T21:59:12.653Z,17.88
2022-08-23T22:01:42.645Z,16.27
2022-08-23T22:04:13.628Z,17.95
2022-08-23T22:06:46.306Z,16.05
2022-08-23T22:09:27.871Z,16.83
2022-08-23T22:12:00.356Z,17.90
2022-08-23T22:14:31.497Z,16.40
2022-08-23T22:16:59.930Z,18.45
2022-08-23T22:19:28.007Z,19.05
2022-08-23T22:21:55.338Z,18.88
2022-08-23T22:24:25.849Z,18.73
2022-08-23T22:26:55.734Z,17.83
2022-08-23T22:29:24.513Z,23.00
2022-08-23T22:31:52.083Z,20.35
2022-08-23T22:34:19.472Z,17.58
2022-08-23T22:36:51.432Z,22.83
2022-08-23T22:39:21.204Z,21.80
2022-08-23T22:41:49.953Z,22.25
2022-08-23T22:44:18.507Z,21.83
2022-08-23T22:46:46.005Z,20.55
2022-08-23T22:49:13.941Z,21.67
2022-08-23T22:51:42.191Z,22.23
2022-08-23T22:54:11.586Z,18.75
2022-08-23T22:56:51.988Z,20.13
2022-08-23T22:59:25.841Z,22.60
2022-08-23T23:01:57.991Z,23.05
2022-08-23T23:04:26.598Z,21.27
2022-08-23T23:06:55.956Z,21.08
2022-08-23T23:09:24.997Z,23.83
2022-08-23T23:11:53.299Z,24.35
2022-08-23T23:14:22.373Z,23.33
2022-08-23T23:16:50.888Z,23.40
2022-08-23T23:19:38.170Z,25.13
2022-08-23T23:24:39.911Z,21.70
2022-08-23T23:27:08.318Z,25.95
2022-08-23T23:29:35.780Z,23.10
2022-08-23T23:32:03.419Z,23.70
2022-08-23T23:34:31.642Z,24.13
2022-08-23T23:36:59.398Z,25.13
2022-08-23T23:39:28.061Z,28.38
2022-08-23T23:41:55.847Z,29.90
2022-08-23T23:44:30.774Z,24.85
2022-08-23T23:47:01.385Z,26.25
2022-08-23T23:49:32.677Z,29.88
2022-08-23T23:52:04.844Z,28.35
2022-08-23T23:54:35.406Z,28.40
2022-08-23T23:57:05.644Z,29.13
2022-08-23T23:59:34.873Z,28.70
